Huvudsida
METAR-TAF:

METAR-TAF

Flygplatser :

Bahrains internationella flygplats

Bahrain, Bahrain

latitud: 26-16N, longitud: 050-39E, höjd: 2 m

Aktuellt väderrapport

Denna rapport gjordes för 22 minuter sedan, klockan 01:30 UTC
Vind 5 kt från väst
Temperatur 33°C
Fuktighet 56%
Tryck 997 hPa
Sikt 10 km eller mer
Inga moln under 1 500 m eller inga cumulonimbus

METAR: OBBI 190130Z 28005KT CAVOK 33/23 Q0997 NOSIG

Tid: 04:52 (01:52 UTC)

Väderprognos

Denna rapport gjordes för 2 timmar och 52 minuter sedan, klockan 23:00 UTC
Prognos gäller från 19 kl. 00 UTC till 20 kl. 06 UTC
Vind 7 kt från väst
Sikt 10 km eller mer
Inga moln under 1 500 m eller inga cumulonimbus
Blir
från 19 kl. 02 UTC till 19 kl. 04 UTC
Vind 16 kt från nord/nordväst
Blir
från 19 kl. 14 UTC till 19 kl. 16 UTC
Vind 6 kt från väst/nordväst

TAF: OBBI 182300Z 1900/2006 28007KT CAVOK BECMG 1902/1904 34016KT BECMG 1914/1916 30006KT

Aktuella väderrapporter och prognoser från 4000 flygplatser (METAR- och TAF-rapporter).

De tillgängliga stationerna syns som gula och röda prickar på kartan.

För musen över prickarna för att se namnen på stationerna.

Klicka sedan för att få väderrapporter och prognoser.

För att ändra kartan: Klicka på de gröna knapparna med ett svart kors på för att zooma in; den gröna knappen med ett streck på för att zooma ut; eller på de gröna pilarna för angränsande kartor.


METAR-TAF: